sensor_id;sensor_type;location;lat;lon;timestamp;P1;durP1;ratioP1;P2;durP2;ratioP2
3791;SDS011;1911;53.768;11.474;2023-09-19T00:00:18;2.93;;;1.10;;
3791;SDS011;1911;53.768;11.474;2023-09-19T00:02:46;2.97;;;1.33;;
3791;SDS011;1911;53.768;11.474;2023-09-19T00:05:16;2.50;;;1.20;;
3791;SDS011;1911;53.768;11.474;2023-09-19T00:07:42;1.87;;;1.07;;
3791;SDS011;1911;53.768;11.474;2023-09-19T00:10:07;2.13;;;1.20;;
3791;SDS011;1911;53.768;11.474;2023-09-19T00:12:34;2.50;;;1.40;;
3791;SDS011;1911;53.768;11.474;2023-09-19T00:15:00;2.03;;;1.30;;
3791;SDS011;1911;53.768;11.474;2023-09-19T00:17:26;1.67;;;1.10;;
3791;SDS011;1911;53.768;11.474;2023-09-19T00:19:55;3.13;;;1.60;;
3791;SDS011;1911;53.768;11.474;2023-09-19T00:22:21;4.20;;;1.30;;
3791;SDS011;1911;53.768;11.474;2023-09-19T00:24:46;2.70;;;1.30;;
3791;SDS011;1911;53.768;11.474;2023-09-19T00:27:12;1.60;;;1.03;;
3791;SDS011;1911;53.768;11.474;2023-09-19T00:29:37;2.57;;;1.57;;
3791;SDS011;1911;53.768;11.474;2023-09-19T00:32:04;2.23;;;1.23;;
3791;SDS011;1911;53.768;11.474;2023-09-19T00:34:31;5.63;;;1.67;;
3791;SDS011;1911;53.768;11.474;2023-09-19T00:36:59;1.60;;;1.33;;
3791;SDS011;1911;53.768;11.474;2023-09-19T00:39:24;3.53;;;2.03;;
3791;SDS011;1911;53.768;11.474;2023-09-19T00:41:50;2.13;;;1.20;;
3791;SDS011;1911;53.768;11.474;2023-09-19T00:44:16;3.10;;;1.50;;
3791;SDS011;1911;53.768;11.474;2023-09-19T00:46:42;4.03;;;1.77;;
3791;SDS011;1911;53.768;11.474;2023-09-19T00:49:08;3.47;;;1.83;;
3791;SDS011;1911;53.768;11.474;2023-09-19T00:51:34;1.93;;;1.30;;
3791;SDS011;1911;53.768;11.474;2023-09-19T00:54:01;2.90;;;1.23;;
3791;SDS011;1911;53.768;11.474;2023-09-19T00:56:27;2.07;;;1.13;;
3791;SDS011;1911;53.768;11.474;2023-09-19T00:58:53;2.63;;;1.40;;
3791;SDS011;1911;53.768;11.474;2023-09-19T01:01:19;1.83;;;1.37;;
3791;SDS011;1911;53.768;11.474;2023-09-19T01:03:45;2.83;;;1.50;;
3791;SDS011;1911;53.768;11.474;2023-09-19T01:06:11;2.43;;;1.73;;
3791;SDS011;1911;53.768;11.474;2023-09-19T01:08:37;2.83;;;1.90;;
3791;SDS011;1911;53.768;11.474;2023-09-19T01:11:11;1.53;;;1.30;;
3791;SDS011;1911;53.768;11.474;2023-09-19T01:14:02;2.80;;;1.80;;
3791;SDS011;1911;53.768;11.474;2023-09-19T01:16:39;3.53;;;1.73;;
3791;SDS011;1911;53.768;11.474;2023-09-19T01:19:35;2.13;;;1.67;;
3791;SDS011;1911;53.768;11.474;2023-09-19T01:22:30;5.80;;;2.20;;
3791;SDS011;1911;53.768;11.474;2023-09-19T01:30:26;3.60;;;1.70;;
3791;SDS011;1911;53.768;11.474;2023-09-19T01:32:57;2.30;;;1.70;;
3791;SDS011;1911;53.768;11.474;2023-09-19T01:35:24;2.47;;;1.60;;
3791;SDS011;1911;53.768;11.474;2023-09-19T01:37:51;3.70;;;1.83;;
3791;SDS011;1911;53.768;11.474;2023-09-19T01:40:18;3.50;;;2.27;;
3791;SDS011;1911;53.768;11.474;2023-09-19T01:45:34;4.97;;;2.13;;
3791;SDS011;1911;53.768;11.474;2023-09-19T01:48:37;2.67;;;2.03;;
3791;SDS011;1911;53.768;11.474;2023-09-19T01:51:06;3.40;;;1.43;;
3791;SDS011;1911;53.768;11.474;2023-09-19T01:53:41;2.43;;;1.70;;
3791;SDS011;1911;53.768;11.474;2023-09-19T01:56:12;10.63;;;4.13;;
3791;SDS011;1911;53.768;11.474;2023-09-19T01:58:48;2.60;;;2.03;;
3791;SDS011;1911;53.768;11.474;2023-09-19T02:01:17;7.77;;;3.43;;
3791;SDS011;1911;53.768;11.474;2023-09-19T02:03:47;3.17;;;2.00;;
3791;SDS011;1911;53.768;11.474;2023-09-19T02:06:17;6.00;;;2.47;;
3791;SDS011;1911;53.768;11.474;2023-09-19T02:08:44;6.73;;;2.30;;
3791;SDS011;1911;53.768;11.474;2023-09-19T02:11:10;3.37;;;2.30;;
3791;SDS011;1911;53.768;11.474;2023-09-19T02:13:37;6.67;;;2.87;;
3791;SDS011;1911;53.768;11.474;2023-09-19T02:16:03;4.30;;;2.13;;
3791;SDS011;1911;53.768;11.474;2023-09-19T02:18:30;5.20;;;2.63;;
3791;SDS011;1911;53.768;11.474;2023-09-19T02:20:56;7.63;;;2.60;;
3791;SDS011;1911;53.768;11.474;2023-09-19T02:23:23;3.03;;;2.23;;
3791;SDS011;1911;53.768;11.474;2023-09-19T02:25:59;4.87;;;2.70;;
3791;SDS011;1911;53.768;11.474;2023-09-19T02:28:30;3.27;;;2.17;;
3791;SDS011;1911;53.768;11.474;2023-09-19T02:30:57;6.73;;;3.50;;
3791;SDS011;1911;53.768;11.474;2023-09-19T02:33:23;5.60;;;3.00;;
3791;SDS011;1911;53.768;11.474;2023-09-19T02:35:48;4.80;;;2.67;;
3791;SDS011;1911;53.768;11.474;2023-09-19T02:38:15;3.50;;;2.30;;
3791;SDS011;1911;53.768;11.474;2023-09-19T02:40:45;3.30;;;2.60;;
3791;SDS011;1911;53.768;11.474;2023-09-19T02:43:11;5.83;;;2.40;;
3791;SDS011;1911;53.768;11.474;2023-09-19T02:45:37;4.70;;;2.80;;
3791;SDS011;1911;53.768;11.474;2023-09-19T02:48:03;8.83;;;3.37;;
3791;SDS011;1911;53.768;11.474;2023-09-19T02:50:29;5.00;;;2.80;;
3791;SDS011;1911;53.768;11.474;2023-09-19T02:52:55;3.47;;;2.90;;
3791;SDS011;1911;53.768;11.474;2023-09-19T02:55:20;7.10;;;3.17;;
3791;SDS011;1911;53.768;11.474;2023-09-19T03:00:13;4.90;;;3.80;;
3791;SDS011;1911;53.768;11.474;2023-09-19T03:02:40;5.43;;;3.47;;
3791;SDS011;1911;53.768;11.474;2023-09-19T03:05:06;10.17;;;3.90;;
3791;SDS011;1911;53.768;11.474;2023-09-19T03:07:32;7.40;;;3.40;;
3791;SDS011;1911;53.768;11.474;2023-09-19T03:09:58;4.97;;;3.70;;
3791;SDS011;1911;53.768;11.474;2023-09-19T03:12:25;4.80;;;3.30;;
3791;SDS011;1911;53.768;11.474;2023-09-19T03:14:51;6.50;;;3.73;;
3791;SDS011;1911;53.768;11.474;2023-09-19T03:17:16;5.20;;;3.17;;
3791;SDS011;1911;53.768;11.474;2023-09-19T03:19:44;5.07;;;3.60;;
3791;SDS011;1911;53.768;11.474;2023-09-19T03:22:10;6.67;;;3.87;;
3791;SDS011;1911;53.768;11.474;2023-09-19T03:24:36;3.57;;;3.27;;
3791;SDS011;1911;53.768;11.474;2023-09-19T03:27:02;7.70;;;3.80;;
3791;SDS011;1911;53.768;11.474;2023-09-19T03:29:29;4.33;;;3.90;;
3791;SDS011;1911;53.768;11.474;2023-09-19T03:31:55;8.17;;;4.17;;
3791;SDS011;1911;53.768;11.474;2023-09-19T03:34:20;6.33;;;4.40;;
3791;SDS011;1911;53.768;11.474;2023-09-19T03:36:46;12.80;;;4.53;;
3791;SDS011;1911;53.768;11.474;2023-09-19T03:39:12;8.93;;;4.30;;
3791;SDS011;1911;53.768;11.474;2023-09-19T03:41:40;5.20;;;4.07;;
3791;SDS011;1911;53.768;11.474;2023-09-19T03:44:06;6.87;;;3.40;;
3791;SDS011;1911;53.768;11.474;2023-09-19T03:46:32;7.80;;;4.13;;
3791;SDS011;1911;53.768;11.474;2023-09-19T03:48:59;7.00;;;3.60;;
3791;SDS011;1911;53.768;11.474;2023-09-19T03:51:25;5.40;;;4.73;;
3791;SDS011;1911;53.768;11.474;2023-09-19T03:53:50;10.30;;;4.73;;
3791;SDS011;1911;53.768;11.474;2023-09-19T03:56:16;5.60;;;3.37;;
3791;SDS011;1911;53.768;11.474;2023-09-19T03:58:41;7.97;;;3.70;;
3791;SDS011;1911;53.768;11.474;2023-09-19T04:01:07;6.57;;;4.37;;
3791;SDS011;1911;53.768;11.474;2023-09-19T04:03:35;7.37;;;3.97;;
3791;SDS011;1911;53.768;11.474;2023-09-19T04:06:21;3.93;;;3.50;;
3791;SDS011;1911;53.768;11.474;2023-09-19T04:08:47;5.87;;;3.97;;
3791;SDS011;1911;53.768;11.474;2023-09-19T04:11:13;4.17;;;3.87;;
3791;SDS011;1911;53.768;11.474;2023-09-19T04:13:39;11.77;;;3.73;;
3791;SDS011;1911;53.768;11.474;2023-09-19T04:16:04;5.50;;;3.50;;
3791;SDS011;1911;53.768;11.474;2023-09-19T04:18:31;7.00;;;3.40;;
3791;SDS011;1911;53.768;11.474;2023-09-19T04:20:59;8.53;;;5.03;;
3791;SDS011;1911;53.768;11.474;2023-09-19T04:23:27;7.00;;;3.77;;
3791;SDS011;1911;53.768;11.474;2023-09-19T04:25:53;5.40;;;3.60;;
3791;SDS011;1911;53.768;11.474;2023-09-19T04:28:19;4.10;;;3.70;;
3791;SDS011;1911;53.768;11.474;2023-09-19T04:30:44;6.07;;;3.77;;
3791;SDS011;1911;53.768;11.474;2023-09-19T04:33:10;6.37;;;3.67;;
3791;SDS011;1911;53.768;11.474;2023-09-19T04:35:39;5.77;;;3.33;;
3791;SDS011;1911;53.768;11.474;2023-09-19T04:38:07;5.93;;;3.57;;
3791;SDS011;1911;53.768;11.474;2023-09-19T04:40:33;5.47;;;3.43;;
3791;SDS011;1911;53.768;11.474;2023-09-19T04:42:58;5.30;;;3.47;;
3791;SDS011;1911;53.768;11.474;2023-09-19T04:45:27;6.03;;;3.87;;
3791;SDS011;1911;53.768;11.474;2023-09-19T04:47:54;5.43;;;4.30;;
3791;SDS011;1911;53.768;11.474;2023-09-19T04:50:20;8.37;;;3.90;;
3791;SDS011;1911;53.768;11.474;2023-09-19T04:52:51;4.50;;;3.27;;
3791;SDS011;1911;53.768;11.474;2023-09-19T04:55:17;6.70;;;3.67;;
3791;SDS011;1911;53.768;11.474;2023-09-19T04:57:44;5.37;;;3.00;;
3791;SDS011;1911;53.768;11.474;2023-09-19T05:00:14;10.67;;;3.70;;
3791;SDS011;1911;53.768;11.474;2023-09-19T05:02:42;6.17;;;4.03;;
3791;SDS011;1911;53.768;11.474;2023-09-19T05:05:08;3.57;;;3.13;;
3791;SDS011;1911;53.768;11.474;2023-09-19T05:07:39;7.33;;;3.30;;
3791;SDS011;1911;53.768;11.474;2023-09-19T05:10:06;6.33;;;2.80;;
3791;SDS011;1911;53.768;11.474;2023-09-19T05:12:33;4.33;;;2.03;;
3791;SDS011;1911;53.768;11.474;2023-09-19T05:15:00;8.03;;;2.50;;
3791;SDS011;1911;53.768;11.474;2023-09-19T05:17:26;3.17;;;2.20;;
3791;SDS011;1911;53.768;11.474;2023-09-19T05:19:52;4.37;;;2.33;;
3791;SDS011;1911;53.768;11.474;2023-09-19T05:22:18;7.63;;;2.57;;
3791;SDS011;1911;53.768;11.474;2023-09-19T05:24:43;3.13;;;1.97;;
3791;SDS011;1911;53.768;11.474;2023-09-19T05:27:13;4.70;;;2.17;;
3791;SDS011;1911;53.768;11.474;2023-09-19T05:29:44;3.67;;;1.97;;
3791;SDS011;1911;53.768;11.474;2023-09-19T05:32:10;10.40;;;2.50;;
3791;SDS011;1911;53.768;11.474;2023-09-19T05:34:36;6.87;;;2.33;;
3791;SDS011;1911;53.768;11.474;2023-09-19T05:37:03;2.87;;;1.90;;
3791;SDS011;1911;53.768;11.474;2023-09-19T05:39:30;12.13;;;2.23;;
3791;SDS011;1911;53.768;11.474;2023-09-19T05:41:55;5.10;;;1.50;;
3791;SDS011;1911;53.768;11.474;2023-09-19T05:44:22;4.07;;;1.90;;
3791;SDS011;1911;53.768;11.474;2023-09-19T05:46:48;2.93;;;1.77;;
3791;SDS011;1911;53.768;11.474;2023-09-19T05:49:14;3.30;;;1.80;;
3791;SDS011;1911;53.768;11.474;2023-09-19T05:51:40;4.70;;;1.70;;
3791;SDS011;1911;53.768;11.474;2023-09-19T05:54:06;6.20;;;2.03;;
3791;SDS011;1911;53.768;11.474;2023-09-19T05:56:32;3.40;;;1.73;;
3791;SDS011;1911;53.768;11.474;2023-09-19T05:58:57;5.20;;;1.80;;
3791;SDS011;1911;53.768;11.474;2023-09-19T06:01:24;11.23;;;2.17;;
3791;SDS011;1911;53.768;11.474;2023-09-19T06:03:50;3.77;;;1.50;;
3791;SDS011;1911;53.768;11.474;2023-09-19T06:06:17;4.23;;;1.57;;
3791;SDS011;1911;53.768;11.474;2023-09-19T06:08:44;5.73;;;1.73;;
3791;SDS011;1911;53.768;11.474;2023-09-19T06:11:09;8.00;;;1.80;;
3791;SDS011;1911;53.768;11.474;2023-09-19T06:13:35;7.40;;;1.97;;
3791;SDS011;1911;53.768;11.474;2023-09-19T06:16:04;6.70;;;1.90;;
3791;SDS011;1911;53.768;11.474;2023-09-19T06:18:30;4.80;;;1.60;;
3791;SDS011;1911;53.768;11.474;2023-09-19T06:20:58;7.30;;;2.00;;
3791;SDS011;1911;53.768;11.474;2023-09-19T06:23:24;6.20;;;1.57;;
3791;SDS011;1911;53.768;11.474;2023-09-19T06:25:52;5.33;;;1.70;;
3791;SDS011;1911;53.768;11.474;2023-09-19T06:28:18;3.27;;;1.53;;
3791;SDS011;1911;53.768;11.474;2023-09-19T06:30:49;4.97;;;1.47;;
3791;SDS011;1911;53.768;11.474;2023-09-19T06:33:14;4.40;;;1.47;;
3791;SDS011;1911;53.768;11.474;2023-09-19T06:35:40;4.23;;;1.40;;
3791;SDS011;1911;53.768;11.474;2023-09-19T06:38:07;7.33;;;1.73;;
3791;SDS011;1911;53.768;11.474;2023-09-19T06:40:33;5.20;;;1.57;;
3791;SDS011;1911;53.768;11.474;2023-09-19T06:42:59;7.27;;;2.10;;
3791;SDS011;1911;53.768;11.474;2023-09-19T06:45:27;4.30;;;1.53;;
3791;SDS011;1911;53.768;11.474;2023-09-19T06:47:53;4.80;;;1.50;;
3791;SDS011;1911;53.768;11.474;2023-09-19T06:50:22;4.30;;;1.23;;
3791;SDS011;1911;53.768;11.474;2023-09-19T06:52:49;5.80;;;1.50;;
3791;SDS011;1911;53.768;11.474;2023-09-19T06:55:17;4.53;;;1.53;;
3791;SDS011;1911;53.768;11.474;2023-09-19T06:57:44;5.40;;;1.70;;
3791;SDS011;1911;53.768;11.474;2023-09-19T07:00:10;3.80;;;1.40;;
3791;SDS011;1911;53.768;11.474;2023-09-19T07:05:30;6.03;;;1.80;;
3791;SDS011;1911;53.768;11.474;2023-09-19T07:07:59;4.73;;;1.60;;
3791;SDS011;1911;53.768;11.474;2023-09-19T07:10:26;5.10;;;1.63;;
3791;SDS011;1911;53.768;11.474;2023-09-19T07:12:59;5.57;;;1.70;;
3791;SDS011;1911;53.768;11.474;2023-09-19T07:15:26;7.60;;;1.53;;
3791;SDS011;1911;53.768;11.474;2023-09-19T07:17:53;8.70;;;1.97;;
3791;SDS011;1911;53.768;11.474;2023-09-19T07:20:21;4.27;;;1.70;;
3791;SDS011;1911;53.768;11.474;2023-09-19T07:22:48;5.33;;;1.47;;
3791;SDS011;1911;53.768;11.474;2023-09-19T07:25:16;6.77;;;1.77;;
3791;SDS011;1911;53.768;11.474;2023-09-19T07:27:42;6.83;;;1.70;;
3791;SDS011;1911;53.768;11.474;2023-09-19T07:30:08;6.30;;;1.80;;
3791;SDS011;1911;53.768;11.474;2023-09-19T07:32:34;5.37;;;2.10;;
3791;SDS011;1911;53.768;11.474;2023-09-19T07:35:03;4.57;;;1.63;;
3791;SDS011;1911;53.768;11.474;2023-09-19T07:37:30;8.37;;;2.00;;
3791;SDS011;1911;53.768;11.474;2023-09-19T07:40:01;4.90;;;2.03;;
3791;SDS011;1911;53.768;11.474;2023-09-19T07:42:32;2.90;;;1.27;;
3791;SDS011;1911;53.768;11.474;2023-09-19T07:45:06;5.40;;;1.90;;
3791;SDS011;1911;53.768;11.474;2023-09-19T07:47:33;3.00;;;1.40;;
3791;SDS011;1911;53.768;11.474;2023-09-19T07:49:59;9.47;;;1.63;;
3791;SDS011;1911;53.768;11.474;2023-09-19T07:52:27;5.47;;;1.70;;
3791;SDS011;1911;53.768;11.474;2023-09-19T07:54:54;4.17;;;1.60;;
3791;SDS011;1911;53.768;11.474;2023-09-19T07:57:20;9.77;;;1.17;;
3791;SDS011;1911;53.768;11.474;2023-09-19T07:59:45;5.27;;;1.63;;
3791;SDS011;1911;53.768;11.474;2023-09-19T08:02:11;5.10;;;1.40;;
3791;SDS011;1911;53.768;11.474;2023-09-19T08:04:43;3.47;;;1.60;;
3791;SDS011;1911;53.768;11.474;2023-09-19T08:07:11;7.87;;;2.20;;
3791;SDS011;1911;53.768;11.474;2023-09-19T08:09:38;3.20;;;1.40;;
3791;SDS011;1911;53.768;11.474;2023-09-19T08:12:05;8.00;;;1.90;;
3791;SDS011;1911;53.768;11.474;2023-09-19T08:14:33;5.17;;;1.90;;
3791;SDS011;1911;53.768;11.474;2023-09-19T08:16:59;3.60;;;1.57;;
3791;SDS011;1911;53.768;11.474;2023-09-19T08:19:25;8.77;;;2.10;;
3791;SDS011;1911;53.768;11.474;2023-09-19T08:21:56;5.87;;;2.10;;
3791;SDS011;1911;53.768;11.474;2023-09-19T08:24:24;5.70;;;1.50;;
3791;SDS011;1911;53.768;11.474;2023-09-19T08:26:56;4.03;;;1.60;;
3791;SDS011;1911;53.768;11.474;2023-09-19T08:29:23;13.00;;;2.43;;
3791;SDS011;1911;53.768;11.474;2023-09-19T08:31:55;6.83;;;1.83;;
3791;SDS011;1911;53.768;11.474;2023-09-19T08:34:22;4.10;;;1.90;;
3791;SDS011;1911;53.768;11.474;2023-09-19T08:36:52;8.93;;;2.43;;
3791;SDS011;1911;53.768;11.474;2023-09-19T08:39:21;6.20;;;1.90;;
3791;SDS011;1911;53.768;11.474;2023-09-19T08:41:48;5.57;;;2.00;;
3791;SDS011;1911;53.768;11.474;2023-09-19T08:44:13;8.43;;;1.73;;
3791;SDS011;1911;53.768;11.474;2023-09-19T08:46:40;7.03;;;2.43;;
3791;SDS011;1911;53.768;11.474;2023-09-19T08:49:32;7.70;;;2.47;;
3791;SDS011;1911;53.768;11.474;2023-09-19T08:52:05;5.30;;;2.17;;
3791;SDS011;1911;53.768;11.474;2023-09-19T08:54:45;7.30;;;1.90;;
3791;SDS011;1911;53.768;11.474;2023-09-19T08:57:13;6.80;;;2.10;;
3791;SDS011;1911;53.768;11.474;2023-09-19T08:59:46;9.43;;;2.37;;
3791;SDS011;1911;53.768;11.474;2023-09-19T09:02:16;6.37;;;2.13;;
3791;SDS011;1911;53.768;11.474;2023-09-19T09:04:44;3.53;;;1.67;;
3791;SDS011;1911;53.768;11.474;2023-09-19T09:07:11;8.07;;;2.30;;
3791;SDS011;1911;53.768;11.474;2023-09-19T09:09:44;8.47;;;2.13;;
3791;SDS011;1911;53.768;11.474;2023-09-19T09:12:14;8.10;;;2.30;;
3791;SDS011;1911;53.768;11.474;2023-09-19T09:14:43;7.70;;;2.20;;
3791;SDS011;1911;53.768;11.474;2023-09-19T09:17:11;10.70;;;2.53;;
3791;SDS011;1911;53.768;11.474;2023-09-19T09:19:37;4.57;;;2.10;;
3791;SDS011;1911;53.768;11.474;2023-09-19T09:22:06;10.43;;;2.57;;
3791;SDS011;1911;53.768;11.474;2023-09-19T09:24:36;5.90;;;2.13;;
3791;SDS011;1911;53.768;11.474;2023-09-19T09:27:04;4.90;;;2.07;;
3791;SDS011;1911;53.768;11.474;2023-09-19T09:29:40;6.07;;;2.70;;
3791;SDS011;1911;53.768;11.474;2023-09-19T09:34:47;8.53;;;2.47;;
3791;SDS011;1911;53.768;11.474;2023-09-19T09:37:18;8.70;;;3.10;;
3791;SDS011;1911;53.768;11.474;2023-09-19T09:39:48;6.43;;;2.23;;
3791;SDS011;1911;53.768;11.474;2023-09-19T09:42:30;6.30;;;2.40;;
3791;SDS011;1911;53.768;11.474;2023-09-19T09:45:13;7.57;;;2.47;;
3791;SDS011;1911;53.768;11.474;2023-09-19T09:47:45;8.23;;;2.67;;
3791;SDS011;1911;53.768;11.474;2023-09-19T09:53:21;6.47;;;2.40;;
3791;SDS011;1911;53.768;11.474;2023-09-19T09:55:57;10.83;;;2.30;;
3791;SDS011;1911;53.768;11.474;2023-09-19T09:58:24;6.87;;;2.23;;
3791;SDS011;1911;53.768;11.474;2023-09-19T10:00:57;5.80;;;2.50;;
3791;SDS011;1911;53.768;11.474;2023-09-19T10:03:31;8.03;;;2.10;;
3791;SDS011;1911;53.768;11.474;2023-09-19T10:05:59;6.67;;;2.00;;
3791;SDS011;1911;53.768;11.474;2023-09-19T10:08:27;8.03;;;2.23;;
3791;SDS011;1911;53.768;11.474;2023-09-19T10:10:56;6.53;;;3.00;;
3791;SDS011;1911;53.768;11.474;2023-09-19T10:13:30;7.10;;;1.80;;
3791;SDS011;1911;53.768;11.474;2023-09-19T10:15:58;3.10;;;1.60;;
3791;SDS011;1911;53.768;11.474;2023-09-19T10:18:28;6.70;;;2.47;;
3791;SDS011;1911;53.768;11.474;2023-09-19T10:20:58;4.60;;;2.27;;
3791;SDS011;1911;53.768;11.474;2023-09-19T10:23:26;9.47;;;2.17;;
3791;SDS011;1911;53.768;11.474;2023-09-19T10:25:55;4.83;;;2.00;;
3791;SDS011;1911;53.768;11.474;2023-09-19T10:28:24;6.53;;;1.67;;
3791;SDS011;1911;53.768;11.474;2023-09-19T10:30:53;5.10;;;2.23;;
3791;SDS011;1911;53.768;11.474;2023-09-19T10:33:22;10.03;;;1.90;;
3791;SDS011;1911;53.768;11.474;2023-09-19T10:35:51;6.03;;;1.70;;
3791;SDS011;1911;53.768;11.474;2023-09-19T10:38:23;9.33;;;2.50;;
3791;SDS011;1911;53.768;11.474;2023-09-19T10:40:50;4.90;;;1.90;;
3791;SDS011;1911;53.768;11.474;2023-09-19T10:43:18;5.17;;;1.83;;
3791;SDS011;1911;53.768;11.474;2023-09-19T10:45:46;7.00;;;1.80;;
3791;SDS011;1911;53.768;11.474;2023-09-19T10:48:18;10.60;;;2.03;;
3791;SDS011;1911;53.768;11.474;2023-09-19T10:51:15;5.30;;;2.00;;
3791;SDS011;1911;53.768;11.474;2023-09-19T10:53:50;7.17;;;2.03;;
3791;SDS011;1911;53.768;11.474;2023-09-19T10:56:27;11.37;;;2.80;;
3791;SDS011;1911;53.768;11.474;2023-09-19T11:01:43;5.80;;;2.20;;
3791;SDS011;1911;53.768;11.474;2023-09-19T11:06:59;3.50;;;2.30;;
3791;SDS011;1911;53.768;11.474;2023-09-19T11:15:06;4.00;;;2.13;;
3791;SDS011;1911;53.768;11.474;2023-09-19T11:17:39;3.80;;;1.83;;
3791;SDS011;1911;53.768;11.474;2023-09-19T11:30:44;7.03;;;1.80;;
3791;SDS011;1911;53.768;11.474;2023-09-19T11:33:20;8.70;;;2.10;;
3791;SDS011;1911;53.768;11.474;2023-09-19T11:36:02;6.87;;;1.93;;
3791;SDS011;1911;53.768;11.474;2023-09-19T11:43:47;7.13;;;1.90;;
3791;SDS011;1911;53.768;11.474;2023-09-19T11:46:15;5.10;;;1.97;;
3791;SDS011;1911;53.768;11.474;2023-09-19T11:48:47;4.47;;;1.57;;
3791;SDS011;1911;53.768;11.474;2023-09-19T11:51:15;5.13;;;1.40;;
3791;SDS011;1911;53.768;11.474;2023-09-19T11:53:51;2.60;;;1.37;;
3791;SDS011;1911;53.768;11.474;2023-09-19T11:56:19;4.97;;;1.60;;
3791;SDS011;1911;53.768;11.474;2023-09-19T11:58:48;4.40;;;1.60;;
3791;SDS011;1911;53.768;11.474;2023-09-19T12:01:25;7.13;;;1.83;;
3791;SDS011;1911;53.768;11.474;2023-09-19T12:03:55;11.03;;;1.87;;
3791;SDS011;1911;53.768;11.474;2023-09-19T12:06:23;4.90;;;1.80;;
3791;SDS011;1911;53.768;11.474;2023-09-19T12:08:49;10.47;;;2.07;;
3791;SDS011;1911;53.768;11.474;2023-09-19T12:11:16;4.60;;;1.83;;
3791;SDS011;1911;53.768;11.474;2023-09-19T12:13:46;6.47;;;2.10;;
3791;SDS011;1911;53.768;11.474;2023-09-19T12:18:45;5.73;;;1.57;;
3791;SDS011;1911;53.768;11.474;2023-09-19T12:21:22;7.40;;;1.57;;
3791;SDS011;1911;53.768;11.474;2023-09-19T12:26:44;8.60;;;2.40;;
3791;SDS011;1911;53.768;11.474;2023-09-19T12:29:20;5.73;;;1.40;;
3791;SDS011;1911;53.768;11.474;2023-09-19T12:31:53;7.80;;;2.50;;
3791;SDS011;1911;53.768;11.474;2023-09-19T12:34:27;7.80;;;2.30;;
3791;SDS011;1911;53.768;11.474;2023-09-19T12:39:52;9.23;;;1.80;;
3791;SDS011;1911;53.768;11.474;2023-09-19T12:42:32;2.73;;;1.50;;
3791;SDS011;1911;53.768;11.474;2023-09-19T12:45:00;3.33;;;1.50;;
3791;SDS011;1911;53.768;11.474;2023-09-19T12:47:27;5.70;;;1.60;;
3791;SDS011;1911;53.768;11.474;2023-09-19T12:50:11;8.37;;;2.57;;
3791;SDS011;1911;53.768;11.474;2023-09-19T12:52:38;4.63;;;2.03;;
3791;SDS011;1911;53.768;11.474;2023-09-19T12:55:05;6.03;;;1.70;;
3791;SDS011;1911;53.768;11.474;2023-09-19T12:57:33;5.27;;;1.40;;
3791;SDS011;1911;53.768;11.474;2023-09-19T13:00:00;5.77;;;2.20;;
3791;SDS011;1911;53.768;11.474;2023-09-19T13:02:27;5.30;;;1.50;;
3791;SDS011;1911;53.768;11.474;2023-09-19T13:04:53;11.83;;;2.07;;
3791;SDS011;1911;53.768;11.474;2023-09-19T13:10:10;3.73;;;1.53;;
3791;SDS011;1911;53.768;11.474;2023-09-19T13:12:37;3.93;;;1.27;;
3791;SDS011;1911;53.768;11.474;2023-09-19T13:15:10;4.60;;;1.53;;
3791;SDS011;1911;53.768;11.474;2023-09-19T13:17:48;5.13;;;1.50;;
3791;SDS011;1911;53.768;11.474;2023-09-19T13:20:23;4.00;;;1.63;;
3791;SDS011;1911;53.768;11.474;2023-09-19T13:22:57;6.90;;;1.67;;
3791;SDS011;1911;53.768;11.474;2023-09-19T13:25:33;5.13;;;1.80;;
3791;SDS011;1911;53.768;11.474;2023-09-19T13:28:00;8.03;;;2.30;;
3791;SDS011;1911;53.768;11.474;2023-09-19T13:30:29;5.90;;;1.40;;
3791;SDS011;1911;53.768;11.474;2023-09-19T13:33:06;5.40;;;2.63;;
3791;SDS011;1911;53.768;11.474;2023-09-19T13:35:35;6.93;;;2.27;;
3791;SDS011;1911;53.768;11.474;2023-09-19T13:38:03;8.00;;;1.70;;
3791;SDS011;1911;53.768;11.474;2023-09-19T13:40:29;4.90;;;1.90;;
3791;SDS011;1911;53.768;11.474;2023-09-19T13:42:55;4.73;;;2.20;;
3791;SDS011;1911;53.768;11.474;2023-09-19T13:45:21;4.40;;;1.87;;
3791;SDS011;1911;53.768;11.474;2023-09-19T13:47:49;4.07;;;1.90;;
3791;SDS011;1911;53.768;11.474;2023-09-19T13:50:15;5.77;;;1.60;;
3791;SDS011;1911;53.768;11.474;2023-09-19T13:52:42;4.03;;;1.63;;
3791;SDS011;1911;53.768;11.474;2023-09-19T13:55:07;5.70;;;1.50;;
3791;SDS011;1911;53.768;11.474;2023-09-19T13:57:33;7.73;;;2.57;;
3791;SDS011;1911;53.768;11.474;2023-09-19T13:59:59;7.53;;;1.93;;
3791;SDS011;1911;53.768;11.474;2023-09-19T14:02:24;5.20;;;1.60;;
3791;SDS011;1911;53.768;11.474;2023-09-19T14:04:53;5.97;;;2.73;;
3791;SDS011;1911;53.768;11.474;2023-09-19T14:07:18;6.17;;;2.00;;
3791;SDS011;1911;53.768;11.474;2023-09-19T14:09:45;7.13;;;2.70;;
3791;SDS011;1911;53.768;11.474;2023-09-19T14:12:11;8.10;;;2.23;;
3791;SDS011;1911;53.768;11.474;2023-09-19T14:14:37;4.77;;;2.00;;
3791;SDS011;1911;53.768;11.474;2023-09-19T14:17:03;8.50;;;1.93;;
3791;SDS011;1911;53.768;11.474;2023-09-19T14:19:29;7.07;;;2.17;;
3791;SDS011;1911;53.768;11.474;2023-09-19T14:21:55;9.07;;;2.10;;
3791;SDS011;1911;53.768;11.474;2023-09-19T14:24:21;3.70;;;1.97;;
3791;SDS011;1911;53.768;11.474;2023-09-19T14:26:48;5.20;;;2.07;;
3791;SDS011;1911;53.768;11.474;2023-09-19T14:29:14;5.80;;;2.20;;
3791;SDS011;1911;53.768;11.474;2023-09-19T14:31:40;6.33;;;2.43;;
3791;SDS011;1911;53.768;11.474;2023-09-19T14:34:07;3.17;;;1.63;;
3791;SDS011;1911;53.768;11.474;2023-09-19T14:36:36;5.50;;;1.87;;
3791;SDS011;1911;53.768;11.474;2023-09-19T14:39:03;7.17;;;2.43;;
3791;SDS011;1911;53.768;11.474;2023-09-19T14:41:29;4.70;;;1.90;;
3791;SDS011;1911;53.768;11.474;2023-09-19T14:43:56;5.60;;;1.93;;
3791;SDS011;1911;53.768;11.474;2023-09-19T14:46:22;4.60;;;3.07;;
3791;SDS011;1911;53.768;11.474;2023-09-19T14:48:50;6.53;;;2.70;;
3791;SDS011;1911;53.768;11.474;2023-09-19T14:51:16;6.27;;;2.07;;
3791;SDS011;1911;53.768;11.474;2023-09-19T14:53:44;4.27;;;2.73;;
3791;SDS011;1911;53.768;11.474;2023-09-19T14:56:11;9.43;;;2.70;;
3791;SDS011;1911;53.768;11.474;2023-09-19T14:58:38;4.13;;;2.00;;
3791;SDS011;1911;53.768;11.474;2023-09-19T15:01:07;5.17;;;2.30;;
3791;SDS011;1911;53.768;11.474;2023-09-19T15:03:38;8.00;;;2.60;;
3791;SDS011;1911;53.768;11.474;2023-09-19T15:06:09;5.90;;;2.10;;
3791;SDS011;1911;53.768;11.474;2023-09-19T15:08:39;3.97;;;2.33;;
3791;SDS011;1911;53.768;11.474;2023-09-19T15:11:06;4.07;;;1.83;;
3791;SDS011;1911;53.768;11.474;2023-09-19T15:13:32;3.73;;;2.30;;
3791;SDS011;1911;53.768;11.474;2023-09-19T15:16:05;6.50;;;2.47;;
3791;SDS011;1911;53.768;11.474;2023-09-19T15:18:35;8.00;;;2.67;;
3791;SDS011;1911;53.768;11.474;2023-09-19T15:21:06;8.13;;;2.63;;
3791;SDS011;1911;53.768;11.474;2023-09-19T15:23:35;6.80;;;2.83;;
3791;SDS011;1911;53.768;11.474;2023-09-19T15:26:01;4.50;;;2.13;;
3791;SDS011;1911;53.768;11.474;2023-09-19T15:28:28;9.60;;;3.30;;
3791;SDS011;1911;53.768;11.474;2023-09-19T15:31:01;6.93;;;2.63;;
3791;SDS011;1911;53.768;11.474;2023-09-19T15:33:29;4.00;;;2.30;;
3791;SDS011;1911;53.768;11.474;2023-09-19T15:36:08;7.63;;;3.00;;
3791;SDS011;1911;53.768;11.474;2023-09-19T15:41:26;7.63;;;3.00;;
3791;SDS011;1911;53.768;11.474;2023-09-19T15:43:53;8.50;;;3.37;;
3791;SDS011;1911;53.768;11.474;2023-09-19T15:46:20;8.50;;;3.20;;
3791;SDS011;1911;53.768;11.474;2023-09-19T15:48:46;8.03;;;3.03;;
3791;SDS011;1911;53.768;11.474;2023-09-19T15:51:12;7.67;;;2.83;;
3791;SDS011;1911;53.768;11.474;2023-09-19T15:53:49;5.00;;;2.97;;
3791;SDS011;1911;53.768;11.474;2023-09-19T15:56:17;7.93;;;3.37;;
3791;SDS011;1911;53.768;11.474;2023-09-19T15:58:44;7.27;;;3.13;;
3791;SDS011;1911;53.768;11.474;2023-09-19T16:01:10;8.53;;;3.27;;
3791;SDS011;1911;53.768;11.474;2023-09-19T16:03:39;3.87;;;2.83;;
3791;SDS011;1911;53.768;11.474;2023-09-19T16:06:18;7.13;;;3.40;;
3791;SDS011;1911;53.768;11.474;2023-09-19T16:08:45;8.13;;;3.30;;